Station Historical Data
 
Daily Summary for August 20, 2017 Units:  English    Metric   Both
« Previous Day
Next Day »
Daily Weekly Monthly Yearly Custom
  Current: High: Low: Average:
Temperature: 38.5 °F 46.9 °F 37.9 °F 41.3 °F
Dew Point: 33.8 °F 38.4 °F 33.1 °F 35.5 °F
Humidity: 83% 83% 72% 80%
Wind Speed: 0.0mph 0.0mph 0.0mph 0mph
Wind Gust: 0.0mph 0.0mph - -
WindCalm - - North
Pressure: 30.19 in 30.19 in 30.16 in -
Precipitation: 0.00 in      
Historical Graphs
 
 
Tabular Data for August 20, 2017
Time Temperature Dew Point Pressure Wind Wind Speed Wind Gust Humidity Rainfall Rate (Hourly) solar Conditions
00:02 46.9 °F 38.4 °F 30.16 in Calm     72% 0.00 in 0.0 W/m2 CLR
00:07 46.4 °F 38.2 °F 30.16 in Calm     73% 0.00 in 0.0 W/m2 CLR
00:12 46.0 °F 38.2 °F 30.17 in Calm     74% 0.00 in 0.0 W/m2 CLR
00:17 46.0 °F 38.2 °F 30.17 in Calm     74% 0.00 in 0.0 W/m2 CLR
00:22 46.0 °F 38.2 °F 30.17 in Calm     74% 0.00 in 0.0 W/m2 CLR
00:27 46.0 °F 38.2 °F 30.17 in Calm     74% 0.00 in 0.0 W/m2 CLR
00:32 46.0 °F 38.2 °F 30.17 in Calm     74% 0.00 in 0.0 W/m2 CLR
00:37 45.7 °F 37.9 °F 30.17 in Calm     74% 0.00 in 0.0 W/m2 CLR
00:42 45.7 °F 37.9 °F 30.17 in Calm     74% 0.00 in 0.0 W/m2 CLR
00:47 44.8 °F 37.3 °F 30.17 in Calm     75% 0.00 in 0.0 W/m2 CLR
00:52 44.6 °F 37.5 °F 30.17 in Calm     76% 0.00 in 0.0 W/m2 CLR
00:57 44.4 °F 37.7 °F 30.17 in Calm     77% 0.00 in 0.0 W/m2 CLR
01:02 44.4 °F 37.7 °F 30.17 in Calm     77% 0.00 in 0.0 W/m2 CLR
01:07 43.9 °F 37.5 °F 30.17 in Calm     78% 0.00 in 0.0 W/m2 CLR
01:12 43.5 °F 37.1 °F 30.17 in Calm     78% 0.00 in 0.0 W/m2 CLR
01:17 43.3 °F 36.9 °F 30.17 in Calm     78% 0.00 in 0.0 W/m2 CLR
01:22 43.3 °F 36.9 °F 30.17 in Calm     78% 0.00 in 0.0 W/m2 CLR
01:27 43.5 °F 37.1 °F 30.17 in Calm     78% 0.00 in 0.0 W/m2 CLR
01:32 43.7 °F 37.3 °F 30.18 in Calm     78% 0.00 in 0.0 W/m2 CLR
01:37 43.7 °F 37.3 °F 30.18 in Calm     78% 0.00 in 0.0 W/m2 CLR
01:38 43.7 °F 37.3 °F 30.18 in Calm     78% 0.00 in 0.0 W/m2 CLR
01:43 43.5 °F 37.1 °F 30.18 in Calm     78% 0.00 in 0.0 W/m2 CLR
01:48 43.3 °F 36.9 °F 30.18 in Calm     78% 0.00 in 0.0 W/m2 CLR
01:53 43.2 °F 36.8 °F 30.18 in Calm     78% 0.00 in 0.0 W/m2 CLR
01:58 43.0 °F 36.6 °F 30.18 in Calm     78% 0.00 in 0.0 W/m2 CLR
02:03 42.6 °F 36.2 °F 30.17 in Calm     78% 0.00 in 0.0 W/m2 CLR
02:08 42.4 °F 36.4 °F 30.18 in Calm     79% 0.00 in 0.0 W/m2 CLR
02:13 42.4 °F 36.4 °F 30.18 in Calm     79% 0.00 in 0.0 W/m2 CLR
02:18 42.4 °F 36.4 °F 30.17 in Calm     79% 0.00 in 0.0 W/m2 CLR
02:23 42.1 °F 36.4 °F 30.17 in Calm     80% 0.00 in 0.0 W/m2 CLR
02:28 42.1 °F 36.4 °F 30.17 in Calm     80% 0.00 in 0.0 W/m2 CLR
02:33 42.1 °F 36.0 °F 30.17 in Calm     79% 0.00 in 0.0 W/m2 CLR
02:38 42.1 °F 36.0 °F 30.17 in Calm     79% 0.00 in 0.0 W/m2 CLR
02:43 41.9 °F 35.9 °F 30.18 in Calm     79% 0.00 in 0.0 W/m2 CLR
02:48 41.5 °F 35.5 °F 30.18 in Calm     79% 0.00 in 0.0 W/m2 CLR
02:53 41.4 °F 35.7 °F 30.17 in Calm     80% 0.00 in 0.0 W/m2 CLR
02:58 41.4 °F 35.7 °F 30.17 in Calm     80% 0.00 in 0.0 W/m2 CLR
03:03 41.2 °F 35.5 °F 30.18 in Calm     80% 0.00 in 0.0 W/m2 CLR
03:08 41.0 °F 35.3 °F 30.18 in Calm     80% 0.00 in 0.0 W/m2 CLR
03:13 40.8 °F 35.4 °F 30.18 in Calm     81% 0.00 in 0.0 W/m2 CLR
03:18 40.6 °F 35.3 °F 30.18 in Calm     81% 0.00 in 0.0 W/m2 CLR
03:23 40.5 °F 35.1 °F 30.18 in Calm     81% 0.00 in 0.0 W/m2 CLR
03:26 40.5 °F 35.1 °F 30.18 in Calm     81% 0.00 in 0.0 W/m2 CLR
03:31 40.6 °F 35.3 °F 30.18 in Calm     81% 0.00 in 0.0 W/m2 CLR
03:36 40.3 °F 34.9 °F 30.18 in Calm     81% 0.00 in 0.0 W/m2 CLR
03:41 40.3 °F 34.9 °F 30.18 in Calm     81% 0.00 in 0.0 W/m2 CLR
03:46 40.1 °F 34.7 °F 30.18 in Calm     81% 0.00 in 0.0 W/m2 CLR
03:51 40.1 °F 34.7 °F 30.18 in Calm     81% 0.00 in 0.0 W/m2 CLR
03:56 39.9 °F 34.6 °F 30.18 in Calm     81% 0.00 in 0.0 W/m2 CLR
04:01 39.9 °F 34.6 °F 30.18 in Calm     81% 0.00 in 0.0 W/m2 CLR
04:06 39.9 °F 34.6 °F 30.18 in Calm     81% 0.00 in 0.0 W/m2 CLR
04:11 39.7 °F 34.4 °F 30.19 in Calm     81% 0.00 in 0.0 W/m2 CLR
04:16 39.6 °F 34.2 °F 30.18 in Calm     81% 0.00 in 0.0 W/m2 CLR
04:21 39.6 °F 34.5 °F 30.18 in Calm     82% 0.00 in 0.0 W/m2 CLR
04:26 39.6 °F 34.5 °F 30.18 in Calm     82% 0.00 in 0.0 W/m2 CLR
04:31 39.4 °F 34.0 °F 30.18 in Calm     81% 0.00 in 0.0 W/m2 CLR
04:36 39.4 °F 34.0 °F 30.19 in Calm     81% 0.00 in 0.0 W/m2 CLR
04:41 38.8 °F 33.8 °F 30.18 in Calm     82% 0.00 in 0.0 W/m2 CLR
04:46 38.5 °F 33.5 °F 30.19 in Calm     82% 0.00 in 0.0 W/m2 CLR
04:51 38.5 °F 33.5 °F 30.19 in Calm     82% 0.00 in 0.0 W/m2 CLR
04:56 38.5 °F 33.5 °F 30.19 in Calm     82% 0.00 in 0.0 W/m2 CLR
05:01 38.5 °F 33.5 °F 30.19 in Calm     82% 0.00 in 0.0 W/m2 CLR
05:06 38.5 °F 33.5 °F 30.18 in Calm     82% 0.00 in 0.0 W/m2 CLR
05:11 38.1 °F 33.1 °F 30.18 in Calm     82% 0.00 in 0.0 W/m2 CLR
05:16 38.1 °F 33.4 °F 30.18 in Calm     83% 0.00 in 0.0 W/m2 CLR
05:21 37.9 °F 33.2 °F 30.18 in Calm     83% 0.00 in 0.0 W/m2 CLR
05:26 37.9 °F 33.2 °F 30.18 in Calm     83% 0.00 in 0.0 W/m2 CLR
05:31 37.9 °F 33.2 °F 30.18 in Calm     83% 0.00 in 0.0 W/m2 CLR
05:36 37.9 °F 33.2 °F 30.19 in Calm     83% 0.00 in 0.0 W/m2 CLR
05:41 37.9 °F 33.2 °F 30.19 in Calm     83% 0.00 in 0.0 W/m2 CLR
05:46 37.9 °F 33.2 °F 30.18 in Calm     83% 0.00 in 0.0 W/m2 CLR
05:51 37.9 °F 33.2 °F 30.19 in Calm     83% 0.00 in 0.0 W/m2 CLR
05:56 37.9 °F 33.2 °F 30.19 in Calm     83% 0.00 in 0.0 W/m2 CLR
06:01 37.9 °F 33.2 °F 30.19 in Calm     83% 0.00 in 0.0 W/m2 CLR
06:06 38.1 °F 33.4 °F 30.19 in Calm     83% 0.00 in 0.0 W/m2 CLR
06:11 37.9 °F 33.2 °F 30.19 in Calm     83% 0.00 in 0.0 W/m2 CLR
06:16 37.9 °F 33.2 °F 30.19 in Calm     83% 0.00 in 0.0 W/m2 CLR
06:21 38.5 °F 33.8 °F 30.19 in Calm     83% 0.00 in 0.0 W/m2 CLR
06:26 38.5 °F 33.8 °F 30.19 in Calm     83% 0.00 in 0.0 W/m2 CLR
Fernwood Weather
Compliments of Weather Underground - 2.5 mb